EZY47LY EGKK-EHAM
Flight info
| Callsign | EZY47LY |
|---|---|
| Flight time | 0h 38m |
| Altitude | 29000 |
| Route | FRANE M604 GASBA M197 REDFA |
| Aircraft | A319/M-SDE3FGHIRWY/LB1 |
Departure
| Time | 2026-05-04 14:06 |
|---|---|
| Airport | London Gatwick Airport (EGKK) |
Arrival
| Time | 2026-05-04 14:44 |
|---|---|
| Airport | Amsterdam Airport Schiphol (EHAM) |
| Time | Latitude | Longitude | Altitude | Speed | Heading |
|---|---|---|---|---|---|
| 2026-05-04 13:36 | 51.15659 | -0.17694 | 204 ft | 0 kts | 167° |
| 2026-05-04 13:48 | 51.15673 | -0.17699 | 211 ft | 4 kts | 167° |
| 2026-05-04 13:48 | 51.15699 | -0.17708 | 216 ft | 3 kts | 167° |
| 2026-05-04 13:48 | 51.15720 | -0.17714 | 211 ft | 4 kts | 191° |
| 2026-05-04 13:49 | 51.15735 | -0.17695 | 213 ft | 3 kts | 257° |
| 2026-05-04 13:49 | 51.15739 | -0.17668 | 210 ft | 0 kts | 257° |
| 2026-05-04 13:51 | 51.15736 | -0.17693 | 213 ft | 5 kts | 258° |
| 2026-05-04 13:51 | 51.15725 | -0.17768 | 206 ft | 9 kts | 258° |
| 2026-05-04 13:52 | 51.15703 | -0.17930 | 207 ft | 0 kts | 258° |
| 2026-05-04 13:53 | 51.15703 | -0.17931 | 204 ft | 0 kts | 258° |
| 2026-05-04 13:53 | 51.15700 | -0.17954 | 207 ft | 7 kts | 258° |
| 2026-05-04 13:54 | 51.15659 | -0.18250 | 207 ft | 11 kts | 258° |
| 2026-05-04 13:54 | 51.15629 | -0.18351 | 206 ft | 10 kts | 202° |
| 2026-05-04 13:54 | 51.15486 | -0.18310 | 204 ft | 11 kts | 166° |
| 2026-05-04 13:55 | 51.15408 | -0.18284 | 204 ft | 12 kts | 168° |
| 2026-05-04 13:55 | 51.15329 | -0.18256 | 204 ft | 0 kts | 168° |
| 2026-05-04 13:55 | 51.15326 | -0.18255 | 204 ft | 1 kts | 168° |
| 2026-05-04 13:56 | 51.15318 | -0.18252 | 204 ft | 1 kts | 168° |
| 2026-05-04 13:56 | 51.15308 | -0.18249 | 209 ft | 2 kts | 168° |
| 2026-05-04 13:56 | 51.15230 | -0.18222 | 204 ft | 10 kts | 168° |
| 2026-05-04 13:57 | 51.15187 | -0.18292 | 205 ft | 10 kts | 263° |
| 2026-05-04 13:57 | 51.15175 | -0.18410 | 204 ft | 11 kts | 257° |
| 2026-05-04 13:58 | 51.15120 | -0.18798 | 205 ft | 13 kts | 257° |
| 2026-05-04 13:58 | 51.15080 | -0.19095 | 206 ft | 16 kts | 258° |
| 2026-05-04 13:58 | 51.15054 | -0.19290 | 211 ft | 19 kts | 258° |
| 2026-05-04 13:59 | 51.15025 | -0.19499 | 211 ft | 19 kts | 257° |
| 2026-05-04 13:59 | 51.14995 | -0.19711 | 209 ft | 20 kts | 257° |
| 2026-05-04 13:59 | 51.14935 | -0.20153 | 203 ft | 21 kts | 257° |
| 2026-05-04 14:00 | 51.14903 | -0.20381 | 203 ft | 21 kts | 257° |
| 2026-05-04 14:00 | 51.14841 | -0.20831 | 214 ft | 19 kts | 257° |
| 2026-05-04 14:00 | 51.14814 | -0.21029 | 208 ft | 18 kts | 257° |
| 2026-05-04 14:01 | 51.14778 | -0.21222 | 207 ft | 18 kts | 256° |
| 2026-05-04 14:01 | 51.14744 | -0.21388 | 213 ft | 10 kts | 225° |
| 2026-05-04 14:01 | 51.14729 | -0.21402 | 206 ft | 0 kts | 200° |
| 2026-05-04 14:03 | 51.14715 | -0.21401 | 206 ft | 5 kts | 177° |
| 2026-05-04 14:03 | 51.14674 | -0.21376 | 206 ft | 7 kts | 143° |
| 2026-05-04 14:03 | 51.14650 | -0.21340 | 204 ft | 7 kts | 145° |
| 2026-05-04 14:03 | 51.14616 | -0.21326 | 204 ft | 2 kts | 171° |
| 2026-05-04 14:04 | 51.14566 | -0.21301 | 203 ft | 12 kts | 153° |
| 2026-05-04 14:04 | 51.14520 | -0.21180 | 202 ft | 14 kts | 90° |
| 2026-05-04 14:04 | 51.14530 | -0.21096 | 208 ft | 0 kts | 77° |
| 2026-05-04 14:05 | 51.14535 | -0.21058 | 204 ft | 23 kts | 77° |
| 2026-05-04 14:06 | 51.14630 | -0.20373 | 213 ft | 100 kts | 77° |
| 2026-05-04 14:06 | 51.14823 | -0.18982 | 208 ft | 157 kts | 78° |
| 2026-05-04 14:06 | 51.15056 | -0.17260 | 819 ft | 158 kts | 78° |
| 2026-05-04 14:06 | 51.15289 | -0.15538 | 1523 ft | 160 kts | 77° |
| 2026-05-04 14:07 | 51.15537 | -0.13735 | 2051 ft | 176 kts | 78° |
| 2026-05-04 14:07 | 51.15812 | -0.11728 | 2528 ft | 193 kts | 77° |
| 2026-05-04 14:07 | 51.16140 | -0.09616 | 2970 ft | 211 kts | 73° |
| 2026-05-04 14:07 | 51.16624 | -0.07258 | 3391 ft | 236 kts | 71° |
| 2026-05-04 14:08 | 51.17182 | -0.04660 | 3971 ft | 258 kts | 71° |
| 2026-05-04 14:08 | 51.17779 | -0.01917 | 4803 ft | 266 kts | 71° |
| 2026-05-04 14:08 | 51.18376 | 0.00906 | 5786 ft | 270 kts | 71° |
| 2026-05-04 14:08 | 51.18968 | 0.03757 | 6767 ft | 272 kts | 72° |
| 2026-05-04 14:09 | 51.20332 | 0.09466 | 8542 ft | 285 kts | 54° |
| 2026-05-04 14:09 | 51.21828 | 0.11557 | 9330 ft | 292 kts | 32° |
| 2026-05-04 14:10 | 51.25325 | 0.15275 | 10691 ft | 319 kts | 35° |
| 2026-05-04 14:10 | 51.27201 | 0.17387 | 11074 ft | 339 kts | 35° |
| 2026-05-04 14:10 | 51.29154 | 0.19589 | 11771 ft | 346 kts | 35° |
| 2026-05-04 14:10 | 51.31064 | 0.21737 | 12520 ft | 351 kts | 35° |
| 2026-05-04 14:11 | 51.33056 | 0.23969 | 13342 ft | 356 kts | 35° |
| 2026-05-04 14:11 | 51.37193 | 0.28587 | 14766 ft | 366 kts | 35° |
| 2026-05-04 14:11 | 51.39297 | 0.30933 | 15446 ft | 370 kts | 35° |
| 2026-05-04 14:12 | 51.41421 | 0.33303 | 16110 ft | 374 kts | 35° |
| 2026-05-04 14:12 | 51.43565 | 0.35701 | 16798 ft | 378 kts | 36° |
| 2026-05-04 14:12 | 51.47911 | 0.40567 | 18121 ft | 387 kts | 36° |
| 2026-05-04 14:13 | 51.50124 | 0.43055 | 18722 ft | 391 kts | 36° |
| 2026-05-04 14:13 | 51.52362 | 0.45574 | 19305 ft | 394 kts | 36° |
| 2026-05-04 14:13 | 51.54623 | 0.48122 | 19891 ft | 398 kts | 36° |
| 2026-05-04 14:13 | 51.56897 | 0.50690 | 20502 ft | 401 kts | 35° |
| 2026-05-04 14:14 | 51.59191 | 0.53284 | 21101 ft | 404 kts | 35° |
| 2026-05-04 14:14 | 51.63841 | 0.58553 | 22266 ft | 412 kts | 35° |
| 2026-05-04 14:14 | 51.66193 | 0.61224 | 22825 ft | 416 kts | 35° |
| 2026-05-04 14:15 | 51.70968 | 0.66643 | 23841 ft | 423 kts | 34° |
| 2026-05-04 14:15 | 51.75819 | 0.72155 | 24716 ft | 429 kts | 35° |
| 2026-05-04 14:16 | 51.80517 | 0.78132 | 25556 ft | 436 kts | 46° |
| 2026-05-04 14:16 | 51.82489 | 0.81905 | 25982 ft | 438 kts | 55° |
| 2026-05-04 14:17 | 51.85280 | 0.90645 | 26813 ft | 442 kts | 73° |
| 2026-05-04 14:17 | 51.86166 | 0.95428 | 27251 ft | 444 kts | 75° |
| 2026-05-04 14:17 | 51.87926 | 1.05099 | 28055 ft | 451 kts | 75° |
| 2026-05-04 14:18 | 51.88817 | 1.09999 | 28458 ft | 454 kts | 75° |
| 2026-05-04 14:18 | 51.90585 | 1.19800 | 29008 ft | 454 kts | 76° |
| 2026-05-04 14:19 | 51.92323 | 1.29532 | 29028 ft | 445 kts | 76° |
| 2026-05-04 14:19 | 51.94033 | 1.39166 | 29021 ft | 444 kts | 76° |
| 2026-05-04 14:20 | 51.95724 | 1.48731 | 29020 ft | 444 kts | 76° |
| 2026-05-04 14:20 | 51.97422 | 1.58380 | 29027 ft | 443 kts | 76° |
| 2026-05-04 14:21 | 51.99914 | 1.72782 | 29029 ft | 443 kts | 77° |
| 2026-05-04 14:21 | 52.01431 | 1.82472 | 29013 ft | 442 kts | 78° |
| 2026-05-04 14:22 | 52.02893 | 1.92178 | 29022 ft | 442 kts | 78° |
| 2026-05-04 14:22 | 52.04355 | 2.01823 | 29002 ft | 444 kts | 78° |
| 2026-05-04 14:23 | 52.05876 | 2.11750 | 29017 ft | 456 kts | 78° |
| 2026-05-04 14:23 | 52.06641 | 2.16774 | 28407 ft | 457 kts | 78° |
| 2026-05-04 14:23 | 52.07412 | 2.21861 | 27135 ft | 466 kts | 78° |
| 2026-05-04 14:24 | 52.08177 | 2.26914 | 26385 ft | 463 kts | 77° |
| 2026-05-04 14:24 | 52.08946 | 2.31986 | 25672 ft | 459 kts | 77° |
| 2026-05-04 14:24 | 52.09702 | 2.37006 | 24995 ft | 455 kts | 77° |
| 2026-05-04 14:24 | 52.10448 | 2.41984 | 24334 ft | 451 kts | 77° |
| 2026-05-04 14:25 | 52.11241 | 2.46911 | 23661 ft | 448 kts | 71° |
| 2026-05-04 14:25 | 52.14031 | 2.55867 | 22314 ft | 438 kts | 58° |
| 2026-05-04 14:25 | 52.15571 | 2.60090 | 21917 ft | 429 kts | 59° |
| 2026-05-04 14:26 | 52.17062 | 2.64191 | 21527 ft | 421 kts | 59° |
| 2026-05-04 14:26 | 52.18538 | 2.68274 | 21138 ft | 414 kts | 59° |
| 2026-05-04 14:26 | 52.19988 | 2.72290 | 20754 ft | 408 kts | 59° |
| 2026-05-04 14:26 | 52.21421 | 2.76268 | 20373 ft | 403 kts | 59° |
| 2026-05-04 14:27 | 52.22829 | 2.80192 | 20003 ft | 398 kts | 59° |
| 2026-05-04 14:27 | 52.24225 | 2.84089 | 19629 ft | 394 kts | 59° |
| 2026-05-04 14:27 | 52.25585 | 2.87893 | 19268 ft | 392 kts | 59° |
| 2026-05-04 14:27 | 52.26959 | 2.91734 | 18902 ft | 389 kts | 59° |
| 2026-05-04 14:28 | 52.28320 | 2.95542 | 18539 ft | 387 kts | 59° |
| 2026-05-04 14:28 | 52.29673 | 2.99335 | 18163 ft | 383 kts | 60° |
| 2026-05-04 14:28 | 52.31012 | 3.03094 | 17793 ft | 381 kts | 60° |
| 2026-05-04 14:28 | 52.32343 | 3.06835 | 17435 ft | 379 kts | 59° |
| 2026-05-04 14:29 | 52.34965 | 3.14212 | 16739 ft | 376 kts | 60° |
| 2026-05-04 14:29 | 52.37571 | 3.21581 | 16047 ft | 372 kts | 59° |
| 2026-05-04 14:30 | 52.38866 | 3.25245 | 15701 ft | 370 kts | 59° |
| 2026-05-04 14:30 | 52.40155 | 3.28885 | 15352 ft | 368 kts | 59° |
| 2026-05-04 14:30 | 52.42689 | 3.36086 | 14674 ft | 365 kts | 59° |
| 2026-05-04 14:31 | 52.43946 | 3.39687 | 14339 ft | 363 kts | 60° |
| 2026-05-04 14:31 | 52.45570 | 3.47452 | 13644 ft | 360 kts | 77° |
| 2026-05-04 14:32 | 52.46708 | 3.55422 | 12963 ft | 356 kts | 77° |
| 2026-05-04 14:32 | 52.47272 | 3.59361 | 12634 ft | 355 kts | 77° |
| 2026-05-04 14:32 | 52.47832 | 3.63261 | 12300 ft | 353 kts | 77° |
| 2026-05-04 14:32 | 52.48392 | 3.67175 | 11971 ft | 352 kts | 77° |
| 2026-05-04 14:33 | 52.48947 | 3.71075 | 11643 ft | 350 kts | 77° |
| 2026-05-04 14:33 | 52.49497 | 3.74950 | 11317 ft | 348 kts | 77° |
| 2026-05-04 14:33 | 52.50045 | 3.78821 | 10986 ft | 346 kts | 77° |
| 2026-05-04 14:33 | 52.50396 | 3.82707 | 10716 ft | 344 kts | 91° |
| 2026-05-04 14:34 | 52.50007 | 3.86538 | 10472 ft | 340 kts | 111° |
| 2026-05-04 14:34 | 52.48884 | 3.89901 | 10234 ft | 335 kts | 130° |
| 2026-05-04 14:34 | 52.47361 | 3.92795 | 10040 ft | 333 kts | 133° |
| 2026-05-04 14:34 | 52.45860 | 3.95588 | 9996 ft | 317 kts | 133° |
| 2026-05-04 14:35 | 52.44461 | 3.98189 | 9999 ft | 300 kts | 133° |
| 2026-05-04 14:35 | 52.43101 | 4.00717 | 10007 ft | 292 kts | 133° |
| 2026-05-04 14:35 | 52.41756 | 4.03210 | 10007 ft | 290 kts | 133° |
| 2026-05-04 14:35 | 52.40415 | 4.05693 | 9952 ft | 290 kts | 134° |
| 2026-05-04 14:36 | 52.39067 | 4.08188 | 9472 ft | 293 kts | 133° |
| 2026-05-04 14:36 | 52.37719 | 4.10682 | 9047 ft | 292 kts | 133° |
| 2026-05-04 14:36 | 52.36375 | 4.13169 | 8675 ft | 289 kts | 133° |
| 2026-05-04 14:36 | 52.35065 | 4.15591 | 8282 ft | 287 kts | 133° |
| 2026-05-04 14:37 | 52.33745 | 4.18029 | 7872 ft | 286 kts | 133° |
| 2026-05-04 14:37 | 52.32414 | 4.20489 | 7454 ft | 284 kts | 133° |
| 2026-05-04 14:37 | 52.31120 | 4.22873 | 7061 ft | 283 kts | 133° |
| 2026-05-04 14:37 | 52.29816 | 4.25272 | 6666 ft | 281 kts | 133° |
| 2026-05-04 14:38 | 52.28520 | 4.27658 | 6257 ft | 280 kts | 133° |
| 2026-05-04 14:38 | 52.27227 | 4.30033 | 5897 ft | 276 kts | 133° |
| 2026-05-04 14:38 | 52.25996 | 4.32293 | 5753 ft | 257 kts | 132° |
| 2026-05-04 14:38 | 52.24838 | 4.34423 | 5420 ft | 246 kts | 133° |
| 2026-05-04 14:39 | 52.23785 | 4.36506 | 5159 ft | 233 kts | 123° |
| 2026-05-04 14:39 | 52.23039 | 4.38840 | 4825 ft | 233 kts | 116° |
| 2026-05-04 14:39 | 52.22350 | 4.41231 | 4479 ft | 232 kts | 116° |
| 2026-05-04 14:40 | 52.21044 | 4.46020 | 3841 ft | 229 kts | 105° |
| 2026-05-04 14:40 | 52.20863 | 4.48582 | 3522 ft | 226 kts | 90° |
| 2026-05-04 14:40 | 52.20839 | 4.51100 | 3219 ft | 218 kts | 87° |
| 2026-05-04 14:40 | 52.21165 | 4.53501 | 2928 ft | 217 kts | 65° |
| 2026-05-04 14:41 | 52.21909 | 4.55646 | 2605 ft | 218 kts | 57° |
| 2026-05-04 14:41 | 52.22719 | 4.57702 | 2309 ft | 218 kts | 56° |
| 2026-05-04 14:41 | 52.24340 | 4.61871 | 1716 ft | 216 kts | 56° |
| 2026-05-04 14:42 | 52.25867 | 4.65838 | 1149 ft | 195 kts | 55° |
| 2026-05-04 14:42 | 52.26558 | 4.67636 | 924 ft | 181 kts | 55° |
| 2026-05-04 14:42 | 52.27205 | 4.69319 | 621 ft | 169 kts | 55° |
| 2026-05-04 14:43 | 52.27784 | 4.70828 | 411 ft | 147 kts | 54° |
| 2026-05-04 14:43 | 52.28311 | 4.72175 | 243 ft | 136 kts | 54° |
| 2026-05-04 14:43 | 52.28812 | 4.73472 | 67 ft | 133 kts | 54° |
| 2026-05-04 14:43 | 52.29290 | 4.74705 | 2 ft | 120 kts | 57° |
| 2026-05-04 14:44 | 52.29642 | 4.75623 | -1 ft | 70 kts | 58° |
| 2026-05-04 14:44 | 52.29875 | 4.76228 | -6 ft | 55 kts | 58° |
| 2026-05-04 14:44 | 52.30051 | 4.76556 | -3 ft | 32 kts | 30° |
| 2026-05-04 14:44 | 52.30193 | 4.76680 | -2 ft | 9 kts | 27° |
| 2026-05-04 14:45 | 52.30204 | 4.76690 | -2 ft | 1 kts | 28° |
| 2026-05-04 14:45 | 52.30213 | 4.76698 | -2 ft | 3 kts | 27° |
| 2026-05-04 14:45 | 52.30252 | 4.76729 | -3 ft | 10 kts | 26° |
| 2026-05-04 14:45 | 52.30320 | 4.76844 | -3 ft | 18 kts | 57° |
| 2026-05-04 14:46 | 52.30394 | 4.77034 | -3 ft | 21 kts | 57° |
| 2026-05-04 14:46 | 52.30471 | 4.77233 | -3 ft | 21 kts | 58° |
| 2026-05-04 14:46 | 52.30551 | 4.77441 | -2 ft | 22 kts | 58° |
| 2026-05-04 14:46 | 52.30666 | 4.77587 | -2 ft | 22 kts | 9° |
| 2026-05-04 14:47 | 52.30822 | 4.77602 | -2 ft | 23 kts | 3° |
| 2026-05-04 14:47 | 52.30972 | 4.77616 | -2 ft | 20 kts | 4° |
| 2026-05-04 14:47 | 52.31110 | 4.77629 | -2 ft | 20 kts | 3° |
| 2026-05-04 14:47 | 52.31250 | 4.77642 | -2 ft | 19 kts | 3° |
| 2026-05-04 14:48 | 52.31379 | 4.77652 | -2 ft | 19 kts | 1° |
| 2026-05-04 14:48 | 52.31502 | 4.77575 | -2 ft | 20 kts | 319° |
| 2026-05-04 14:48 | 52.31562 | 4.77457 | -2 ft | 20 kts | 297° |
| 2026-05-04 14:48 | 52.31574 | 4.77222 | -3 ft | 22 kts | 266° |
| 2026-05-04 14:49 | 52.31563 | 4.76905 | -2 ft | 20 kts | 267° |
| 2026-05-04 14:49 | 52.31555 | 4.76682 | -2 ft | 20 kts | 266° |
| 2026-05-04 14:49 | 52.31550 | 4.76520 | -2 ft | 22 kts | 267° |
| 2026-05-04 14:49 | 52.31541 | 4.76263 | -2 ft | 22 kts | 267° |
| 2026-05-04 14:50 | 52.31533 | 4.76022 | -2 ft | 20 kts | 266° |
| 2026-05-04 14:50 | 52.31526 | 4.75810 | -2 ft | 18 kts | 266° |
| 2026-05-04 14:50 | 52.31519 | 4.75619 | -2 ft | 16 kts | 267° |
| 2026-05-04 14:50 | 52.31493 | 4.75475 | -2 ft | 12 kts | 206° |
| 2026-05-04 14:51 | 52.31407 | 4.75471 | -2 ft | 14 kts | 177° |
| 2026-05-04 14:51 | 52.31300 | 4.75479 | -2 ft | 16 kts | 175° |
| 2026-05-04 14:51 | 52.31194 | 4.75491 | -2 ft | 14 kts | 176° |
| 2026-05-04 14:51 | 52.31104 | 4.75477 | -2 ft | 12 kts | 215° |
| 2026-05-04 14:52 | 52.31059 | 4.75426 | -2 ft | 5 kts | 175° |
| 2026-05-04 14:52 | 52.31034 | 4.75451 | -2 ft | 3 kts | 142° |
| 2026-05-04 14:52 | 52.31027 | 4.75459 | -2 ft | 0 kts | 147° |